Amery, WI

3:17 AM CST on January 28, 2015 (GMT -0600)
Rice Lake Regional-Carl's | Change Station
CLOSE
Current Station
Airport
Location: Rice Lake,
Elevation: 1106 ft
Nearby Weather Stations

Elev 1106 ft 45.42 °N, 91.78 °W | Updated 22 minutes ago

Overcast
Overcast
25 °F
Feels Like 15 °F
N
10
Wind Variable Wind from SSE

Today
High -- | Low -- °F
--% Chance of Precip.
Yesterday
High -- | Low -- °F
Precip. -- in
7:34 AM 5:10 PM
Waxing Gibbous, 63% visible
Pressure 30.13 in
Visibility 10.0 miles
Clouds Overcast 1100 ft
Windchill 15 °F
Dew Point 21 °F
Humidity 85%
Rainfall 0.00 in
Snow Depth Not available.
UV 0 out of 12
Pollen .10 out of 12
Air Quality Not available.
Flu Activity Not available.
METAR KRPD 280855Z AUTO 16009KT 10SM OVC011 M04/M06 A3013 RMK AO2 T10371059

More Conditions Fewer Conditions

Pressure 30.13 in
Visibility 10.0 miles
Clouds Overcast 1100 ft
Windchill 15 °F
Dew Point 21 °F
Humidity 85%
Rainfall 0.00 in
Snow Depth Not available.
UV 0 out of 12
Pollen .10 out of 12
Air Quality Not available.
Flu Activity Not available.
METAR KRPD 280855Z AUTO 16009KT 10SM OVC011 M04/M06 A3013 RMK AO2 T10371059

More Conditions Fewer Conditions

10-Day Weather Forecast

Almanac

Astronomy

Jan. 28, 2015 Rise Set
Actual Time
Civil Twilight
Nautical Twilight
Astronomical Twilight
Moon
Length of Visible Light
Length of Day
Tomorrow will be .
, % of the Moon is Illuminated

Today's Extremes

State Highs State Lows

Community

WunderPhotos

Upload Photos

1,791,120 photos uploaded!

WunderBlogs® & News

Nearby

Air Quality

  Air Quality AQ Index Pollutant
Not available.

Snow Depth

Station Depth Elevation

Earthquake Activity

City Distance Mag. Time & Date
Minimum magnitude displayed is 2.5.

Coastal Water Temperatures

Place Temperature

Nearby Weather Stations